< Typhoon 200218 2002 Season Typhoon 200220 >
Typhoon 200219 (CHANGMI)
General InformationTrack Information on Google MapsDetailed Wind InformationList of All Images || Disaster Info.ResourceGoogle EarthGE AnimationAtom FeedGeoJSON
Detalied Best Track (Time Zone = UTC)
Year Month Day Hour Lat. Long. Pressure (hPa) Wind (kt) Class Image Chart
2002 9 20 06 22.1 139.3 1000 0 2 Image Chart
2002 9 20 12 23.3 138.3 1000 0 2 Image Chart
2002 9 20 18 23.5 137.8 1000 0 2 Image Chart
2002 9 21 00 25.3 136.5 1000 0 2 Image Chart
2002 9 21 06 26.5 136.5 1000 0 2 Image Chart
2002 9 21 12 27.6 136.4 998 0 2 Image Chart
2002 9 21 18 27.9 136.6 994 40 3 Image Chart
2002 9 22 00 29.7 138.2 990 40 3 Image Chart
2002 9 22 06 30.9 138.8 985 45 3 Image Chart
2002 9 22 12 32.3 141.0 988 0 6 Image Chart
2002 9 22 18 33.2 142.8 988 0 6 Image Chart
2002 9 23 00 34.8 145.1 986 0 6 Image Chart
2002 9 23 06 37.2 148.5 984 0 6 Image Chart
2002 9 23 12 38.8 152.8 980 0 6 Image Chart
2002 9 23 18 41.6 157.4 980 0 6 Image Chart
2002 9 24 00 43.7 162.6 980 0 6 Image Chart
2002 9 24 06 44.7 167.1 980 0 6 Image Chart
2002 9 24 12 46.3 170.8 980 0 6 Image Chart
2002 9 24 18 48.7 174.7 976 0 6 Image Chart
2002 9 25 00 51.1 175.7 972 0 6 Image Chart
2002 9 25 06 52.8 179.4 968 0 6 Image Chart
2002 9 25 12 53.9 181.8 960 0 6 Image Chart
Japan Meteorological Agency Best Track Data | Correction Date : 2006-01-18
< Typhoon 200218 2002 Season Typhoon 200220 >

Help